createdAt,value
2019-05-28T00:00:32.511Z,100470.91
2019-05-28T00:03:00.948Z,100472.11
2019-05-28T00:05:29.377Z,100472.45
2019-05-28T00:07:57.808Z,100472.28
2019-05-28T00:10:26.238Z,100476.13
2019-05-28T00:12:54.673Z,100475.48
2019-05-28T00:15:23.102Z,100460.24
2019-05-28T00:17:51.535Z,100459.06
2019-05-28T00:20:20.102Z,100465.13
2019-05-28T00:22:48.558Z,100462.94
2019-05-28T00:25:17.225Z,100461.59
2019-05-28T00:27:45.656Z,100462.78
2019-05-28T00:30:20.444Z,100455.74
2019-05-28T00:32:45.858Z,100457.23
2019-05-28T00:35:15.527Z,100460.91
2019-05-28T00:37:43.976Z,100454.20
2019-05-28T00:40:12.473Z,100446.50
2019-05-28T00:42:40.969Z,100450.00
2019-05-28T00:45:10.269Z,100453.87
2019-05-28T00:47:38.997Z,100449.17
2019-05-28T00:50:09.981Z,100445.82
2019-05-28T00:52:38.932Z,100442.48
2019-05-28T00:55:08.930Z,100446.65
2019-05-28T00:57:39.237Z,100441.95
2019-05-28T01:00:08.108Z,100440.44
2019-05-28T01:02:36.599Z,100443.10
2019-05-28T01:05:06.939Z,100438.45
2019-05-28T01:07:35.372Z,100436.73
2019-05-28T01:10:09.404Z,100434.22
2019-05-28T01:12:37.857Z,100428.20
2019-05-28T01:15:08.167Z,100437.55
2019-05-28T01:17:37.141Z,100442.70
2019-05-28T01:20:07.970Z,100431.66
2019-05-28T01:22:36.407Z,100433.17
2019-05-28T01:25:06.943Z,100423.28
2019-05-28T01:27:35.369Z,100431.63
2019-05-28T01:30:07.994Z,100429.97
2019-05-28T01:32:36.491Z,100436.78
2019-05-28T01:35:07.645Z,100431.41
2019-05-28T01:37:36.086Z,100434.75
2019-05-28T01:40:06.047Z,100435.22
2019-05-28T01:42:34.486Z,100430.84
2019-05-28T01:45:02.984Z,100428.48
2019-05-28T01:47:31.429Z,100424.98
2019-05-28T01:49:59.853Z,100432.12
2019-05-28T01:52:28.279Z,100427.09
2019-05-28T01:54:56.725Z,100427.56
2019-05-28T01:57:25.172Z,100426.87
2019-05-28T01:59:53.599Z,100432.69
2019-05-28T02:02:22.023Z,100429.83
2019-05-28T02:04:50.464Z,100427.63
2019-05-28T02:07:18.888Z,100424.92
2019-05-28T02:09:47.394Z,100423.36
2019-05-28T02:12:15.822Z,100426.87
2019-05-28T02:14:44.259Z,100428.66
2019-05-28T02:17:12.748Z,100434.97
2019-05-28T02:19:41.157Z,100435.11
2019-05-28T02:22:09.600Z,100439.73
2019-05-28T02:24:38.027Z,100442.02
2019-05-28T02:27:06.466Z,100443.50
2019-05-28T02:29:34.884Z,100445.86
2019-05-28T02:32:03.378Z,100447.34
2019-05-28T02:34:31.813Z,100443.98
2019-05-28T02:37:00.263Z,100442.31
2019-05-28T02:39:28.679Z,100438.65
2019-05-28T02:41:57.192Z,100441.77
2019-05-28T02:44:25.636Z,100445.28
2019-05-28T02:46:54.055Z,100447.22
2019-05-28T02:49:22.510Z,100449.73
2019-05-28T02:51:51.080Z,100453.23
2019-05-28T02:54:19.771Z,100446.71
2019-05-28T02:56:50.436Z,100448.50
2019-05-28T02:59:18.944Z,100444.10
2019-05-28T03:01:50.998Z,100441.22
2019-05-28T03:04:22.461Z,100438.02
2019-05-28T03:06:53.043Z,100433.63
2019-05-28T03:09:23.420Z,100436.93
2019-05-28T03:11:51.855Z,100443.59
2019-05-28T03:14:20.601Z,100439.38
2019-05-28T03:16:51.437Z,100442.00
2019-05-28T03:19:20.231Z,100440.13
2019-05-28T03:21:50.694Z,100441.30
2019-05-28T03:24:19.151Z,100440.45
2019-05-28T03:26:47.513Z,100440.14
2019-05-28T03:29:15.932Z,100442.08
2019-05-28T03:32:02.904Z,100444.20
2019-05-28T03:34:14.528Z,100443.36
2019-05-28T03:36:43.734Z,100443.52
2019-05-28T03:39:13.134Z,100444.84
2019-05-28T03:41:41.561Z,100452.50
2019-05-28T03:44:10.014Z,100453.48
2019-05-28T03:46:38.435Z,100449.48
2019-05-28T03:49:06.895Z,100454.53
2019-05-28T03:51:35.313Z,100460.56
2019-05-28T03:54:03.741Z,100460.27
2019-05-28T03:56:32.176Z,100461.62
2019-05-28T03:59:00.641Z,100463.70
2019-05-28T04:01:29.099Z,100456.93
2019-05-28T04:03:57.520Z,100468.31
2019-05-28T04:06:25.976Z,100465.39
2019-05-28T04:08:54.400Z,100467.28
2019-05-28T04:11:22.846Z,100470.05
2019-05-28T04:13:51.272Z,100472.58
2019-05-28T04:16:19.706Z,100475.98
2019-05-28T04:18:48.132Z,100480.38
2019-05-28T04:21:16.548Z,100487.56
2019-05-28T04:23:44.984Z,100491.80
2019-05-28T04:26:13.405Z,100490.86
2019-05-28T04:28:41.839Z,100493.38
2019-05-28T04:31:10.332Z,100494.91
2019-05-28T04:33:38.803Z,100493.92
2019-05-28T04:36:07.271Z,100494.30
2019-05-28T04:38:35.690Z,100498.16
2019-05-28T04:41:04.223Z,100495.34
2019-05-28T04:43:32.638Z,100497.86
2019-05-28T04:46:01.228Z,100507.25
2019-05-28T04:48:29.747Z,100505.95
2019-05-28T04:50:58.217Z,100505.47
2019-05-28T04:53:26.660Z,100509.52
2019-05-28T04:55:55.141Z,100506.03
2019-05-28T04:58:23.537Z,100507.06
2019-05-28T05:00:51.981Z,100505.45
2019-05-28T05:03:20.629Z,100503.77
2019-05-28T05:05:49.974Z,100498.96
2019-05-28T05:08:18.412Z,100504.00
2019-05-28T05:10:46.847Z,100501.85
2019-05-28T05:13:15.309Z,100503.03
2019-05-28T05:15:46.995Z,100517.05
2019-05-28T05:18:13.990Z,100508.88
2019-05-28T05:20:42.402Z,100510.41
2019-05-28T05:23:10.831Z,100517.28
2019-05-28T05:25:39.283Z,100515.47
2019-05-28T05:28:07.712Z,100518.83
2019-05-28T05:30:36.138Z,100514.81
2019-05-28T05:33:19.272Z,100511.48
2019-05-28T05:35:34.887Z,100516.53
2019-05-28T05:38:03.388Z,100521.56
2019-05-28T05:40:31.807Z,100519.06
2019-05-28T05:43:00.266Z,100514.41
2019-05-28T05:45:28.734Z,100513.43
2019-05-28T05:47:57.561Z,100515.79
2019-05-28T05:50:25.989Z,100525.98
2019-05-28T05:52:54.412Z,100532.39
2019-05-28T05:55:22.846Z,100537.75
2019-05-28T05:57:51.270Z,100535.47
2019-05-28T06:00:21.043Z,100490.55
2019-05-28T06:02:49.471Z,100549.23
2019-05-28T06:05:17.978Z,100552.45
2019-05-28T06:07:46.449Z,100557.18
2019-05-28T06:10:16.097Z,100549.35
2019-05-28T06:12:44.525Z,100551.36
2019-05-28T06:15:13.015Z,100559.76
2019-05-28T06:17:44.163Z,100555.91
2019-05-28T06:20:13.726Z,100554.38
2019-05-28T06:22:42.291Z,100554.06
2019-05-28T06:25:11.049Z,100554.03
2019-05-28T06:27:40.245Z,100552.86
2019-05-28T06:30:09.109Z,100551.19
2019-05-28T06:32:38.613Z,100547.84
2019-05-28T06:35:07.933Z,100549.54
2019-05-28T06:37:36.375Z,100552.19
2019-05-28T06:40:07.854Z,100551.52
2019-05-28T06:42:39.343Z,100559.56
2019-05-28T06:45:07.723Z,100556.23
2019-05-28T06:47:36.133Z,100558.75
2019-05-28T06:50:07.676Z,100556.89
2019-05-28T06:52:36.172Z,100562.76
2019-05-28T06:55:05.333Z,100552.03
2019-05-28T06:57:33.767Z,100553.84
2019-05-28T07:00:02.208Z,100561.53
2019-05-28T07:02:30.619Z,100557.17
2019-05-28T07:04:59.049Z,100557.64
2019-05-28T07:07:27.495Z,100562.33
2019-05-28T07:09:55.915Z,100559.80
2019-05-28T07:12:24.353Z,100558.40
2019-05-28T07:14:52.815Z,100555.36
2019-05-28T07:17:21.252Z,100557.16
2019-05-28T07:19:49.675Z,100559.95
2019-05-28T07:22:18.101Z,100556.57
2019-05-28T07:24:46.560Z,100560.88
2019-05-28T07:27:14.998Z,100563.70
2019-05-28T07:29:43.419Z,100566.97
2019-05-28T07:32:11.867Z,100575.36
2019-05-28T07:34:40.281Z,100573.83
2019-05-28T07:37:08.739Z,100578.98
2019-05-28T07:39:37.184Z,100578.45
2019-05-28T07:42:05.634Z,100575.94
2019-05-28T07:44:34.059Z,100565.52
2019-05-28T07:47:02.531Z,100570.89
2019-05-28T07:49:30.955Z,100580.61
2019-05-28T07:51:59.387Z,100582.23
2019-05-28T07:54:27.852Z,100574.62
2019-05-28T07:56:56.292Z,100574.23
2019-05-28T07:59:24.734Z,100571.16
2019-05-28T08:01:53.242Z,100571.81
2019-05-28T08:04:21.674Z,100580.16
2019-05-28T08:06:54.828Z,100576.73
2019-05-28T08:09:20.320Z,100580.72
2019-05-28T08:11:48.777Z,100573.22
2019-05-28T08:14:17.200Z,100575.38
2019-05-28T08:16:52.687Z,100579.44
2019-05-28T08:19:15.870Z,100580.04
2019-05-28T08:21:44.413Z,100578.45
2019-05-28T08:24:13.179Z,100581.67
2019-05-28T08:26:41.606Z,100579.80
2019-05-28T08:29:10.020Z,100593.11
2019-05-28T08:31:38.450Z,100590.27
2019-05-28T08:34:06.874Z,100512.27
2019-05-28T08:36:35.293Z,100594.16
2019-05-28T08:39:04.592Z,100605.14
2019-05-28T08:41:33.363Z,100590.18
2019-05-28T08:44:01.804Z,100596.37
2019-05-28T08:46:30.239Z,100604.89
2019-05-28T08:48:58.727Z,100600.79
2019-05-28T08:51:27.215Z,100596.05
2019-05-28T08:53:55.637Z,100598.85
2019-05-28T08:56:24.063Z,100593.73
2019-05-28T08:58:53.118Z,100596.11
2019-05-28T09:01:21.559Z,100595.25
2019-05-28T09:03:49.997Z,100585.96
2019-05-28T09:06:22.119Z,100594.23
2019-05-28T09:08:48.552Z,100599.44
2019-05-28T09:11:17.087Z,100610.83
2019-05-28T09:13:45.492Z,100613.08
2019-05-28T09:16:13.906Z,100615.77
2019-05-28T09:18:42.348Z,100613.33
2019-05-28T09:21:10.788Z,100611.41
2019-05-28T09:23:39.241Z,100614.17
2019-05-28T09:26:07.960Z,100619.16
2019-05-28T09:28:36.403Z,100624.58
2019-05-28T09:31:04.824Z,100623.23
2019-05-28T09:33:33.278Z,100615.84
2019-05-28T09:36:08.776Z,100624.92
2019-05-28T09:38:31.258Z,100625.34
2019-05-28T09:40:59.706Z,100629.17
2019-05-28T09:43:28.158Z,100624.81
2019-05-28T09:45:56.576Z,100636.67
2019-05-28T09:48:25.367Z,100643.00
2019-05-28T09:50:53.783Z,100641.70
2019-05-28T09:53:22.243Z,100639.61
2019-05-28T09:55:50.675Z,100638.44
2019-05-28T09:58:19.117Z,100638.93
2019-05-28T10:00:58.105Z,100646.10
2019-05-28T10:03:18.711Z,100650.31
2019-05-28T10:06:01.713Z,100653.49
2019-05-28T10:08:17.360Z,100647.09
2019-05-28T10:10:45.853Z,100656.03
2019-05-28T10:13:14.294Z,100657.77
2019-05-28T10:15:42.716Z,100661.41
2019-05-28T10:18:11.146Z,100663.47
2019-05-28T10:20:39.595Z,100668.64
2019-05-28T10:23:08.017Z,100669.84
2019-05-28T10:25:36.441Z,100669.60
2019-05-28T10:28:04.902Z,100673.27
2019-05-28T10:30:33.410Z,100665.09
2019-05-28T10:33:01.826Z,100672.56
2019-05-28T10:35:30.433Z,100676.06
2019-05-28T10:37:58.932Z,100676.18
2019-05-28T10:40:27.421Z,100681.34
2019-05-28T10:42:55.854Z,100686.16
2019-05-28T10:45:25.022Z,100694.08
2019-05-28T10:47:54.076Z,100695.69
2019-05-28T10:50:22.606Z,100699.42
2019-05-28T10:52:51.078Z,100707.46
2019-05-28T10:55:19.487Z,100701.98
2019-05-28T10:57:47.936Z,100700.50
2019-05-28T11:00:17.361Z,100706.49
2019-05-28T11:02:45.785Z,100705.14
2019-05-28T11:05:15.084Z,100706.38
2019-05-28T11:07:43.495Z,100706.88
2019-05-28T11:10:23.654Z,100704.23
2019-05-28T11:12:43.219Z,100705.30
2019-05-28T11:15:12.570Z,100705.91
2019-05-28T11:17:41.076Z,100701.85
2019-05-28T11:20:11.031Z,100713.12
2019-05-28T11:22:39.409Z,100712.81
2019-05-28T11:25:09.722Z,100714.28
2019-05-28T11:27:38.157Z,100710.55
2019-05-28T11:30:11.201Z,100717.52
2019-05-28T11:32:39.637Z,100708.16
2019-05-28T11:35:08.820Z,100708.94
2019-05-28T11:37:37.258Z,100718.93
2019-05-28T11:40:08.619Z,100723.88
2019-05-28T11:42:37.061Z,100716.50
2019-05-28T11:45:08.027Z,100719.72
2019-05-28T11:47:36.735Z,100718.97
2019-05-28T11:50:08.472Z,100717.27
2019-05-28T11:52:36.875Z,100718.59
2019-05-28T11:55:11.097Z,100717.05
2019-05-28T11:57:39.596Z,100720.26
2019-05-28T12:00:10.434Z,100724.65
2019-05-28T12:02:38.857Z,100725.59
2019-05-28T12:05:11.105Z,100722.88
2019-05-28T12:07:39.623Z,100719.86
2019-05-28T12:10:09.802Z,100719.77
2019-05-28T12:12:39.866Z,100716.31
2019-05-28T12:15:13.549Z,100722.80
2019-05-28T12:17:45.341Z,100722.69
2019-05-28T12:20:14.527Z,100729.16
2019-05-28T12:22:43.019Z,100727.51
2019-05-28T12:25:13.704Z,100735.40
2019-05-28T12:27:42.215Z,100728.47
2019-05-28T12:30:13.642Z,100733.32
2019-05-28T12:32:42.108Z,100739.68
2019-05-28T12:35:26.447Z,100733.00
2019-05-28T12:37:47.888Z,100736.44
2019-05-28T12:40:12.399Z,100746.90
2019-05-28T12:42:40.832Z,100731.86
2019-05-28T12:45:14.172Z,100735.90
2019-05-28T12:47:42.683Z,100733.55
2019-05-28T12:50:19.822Z,100744.18
2019-05-28T12:52:46.879Z,100744.23
2019-05-28T12:55:13.199Z,100740.95
2019-05-28T12:57:41.614Z,100754.00
2019-05-28T13:00:12.007Z,100748.01
2019-05-28T13:02:40.671Z,100751.59
2019-05-28T13:05:12.171Z,100750.23
2019-05-28T13:07:40.562Z,100753.36
2019-05-28T13:10:09.831Z,100753.36
2019-05-28T13:12:38.246Z,100746.61
2019-05-28T13:15:08.120Z,100745.45
2019-05-28T13:17:35.856Z,100749.75
2019-05-28T13:20:07.515Z,100744.36
2019-05-28T13:22:35.944Z,100737.28
2019-05-28T13:25:06.203Z,100738.42
2019-05-28T13:27:34.634Z,100750.70
2019-05-28T13:30:04.204Z,100747.39
2019-05-28T13:32:32.636Z,100745.98
2019-05-28T13:35:01.296Z,100751.31
2019-05-28T13:37:30.014Z,100751.20
2019-05-28T13:39:58.437Z,100741.50
2019-05-28T13:42:26.878Z,100751.23
2019-05-28T13:44:55.296Z,100748.95
2019-05-28T13:47:33.784Z,100757.31
2019-05-28T13:49:53.854Z,100752.73
2019-05-28T13:52:22.299Z,100753.25
2019-05-28T13:54:50.957Z,100754.61
2019-05-28T13:57:19.416Z,100748.91
2019-05-28T13:59:48.055Z,100761.53
2019-05-28T14:02:16.787Z,100751.18
2019-05-28T14:04:45.226Z,100754.83
2019-05-28T14:07:13.684Z,100750.03
2019-05-28T14:09:42.295Z,100754.34
2019-05-28T14:12:12.535Z,100763.28
2019-05-28T14:14:41.074Z,100762.66
2019-05-28T14:17:09.531Z,100761.80
2019-05-28T14:19:37.979Z,100771.71
2019-05-28T14:22:06.412Z,100765.91
2019-05-28T14:24:34.839Z,100774.53
2019-05-28T14:27:04.501Z,100782.03
2019-05-28T14:29:32.916Z,100780.87
2019-05-28T14:32:01.360Z,100782.79
2019-05-28T14:34:29.781Z,100782.87
2019-05-28T14:36:58.201Z,100782.42
2019-05-28T14:39:39.937Z,100783.47
2019-05-28T14:41:56.062Z,100789.70
2019-05-28T14:44:24.418Z,100785.66
2019-05-28T14:46:52.854Z,100793.78
2019-05-28T14:49:21.297Z,100772.17
2019-05-28T14:51:49.749Z,100793.89
2019-05-28T14:54:18.192Z,100804.77
2019-05-28T14:56:46.624Z,100806.00
2019-05-28T14:59:15.044Z,100807.50
2019-05-28T15:01:43.495Z,100802.17
2019-05-28T15:04:11.936Z,100801.11
2019-05-28T15:06:40.369Z,100807.87
2019-05-28T15:09:20.516Z,100825.06
2019-05-28T15:11:39.436Z,100811.03
2019-05-28T15:14:07.864Z,100803.02
2019-05-28T15:16:36.390Z,100821.10
2019-05-28T15:19:04.973Z,100820.70
2019-05-28T15:21:33.393Z,100823.76
2019-05-28T15:24:01.830Z,100820.97
2019-05-28T15:26:30.252Z,100830.88
2019-05-28T15:28:58.706Z,100823.42
2019-05-28T15:31:27.175Z,100827.92
2019-05-28T15:33:55.633Z,100831.89
2019-05-28T15:36:24.078Z,100830.54
2019-05-28T15:38:52.561Z,100829.19
2019-05-28T15:41:21.389Z,100839.58
2019-05-28T15:43:49.832Z,100836.59
2019-05-28T15:46:18.258Z,100849.18
2019-05-28T15:48:46.691Z,100856.55
2019-05-28T15:51:15.144Z,100856.91
2019-05-28T15:53:43.591Z,100848.71
2019-05-28T15:56:12.029Z,100852.06
2019-05-28T15:58:40.474Z,100857.40
2019-05-28T16:01:08.922Z,100853.42
2019-05-28T16:03:37.389Z,100856.72
2019-05-28T16:06:06.073Z,100854.78
2019-05-28T16:08:34.870Z,100855.55
2019-05-28T16:11:03.304Z,100858.90
2019-05-28T16:13:31.743Z,100851.53
2019-05-28T16:16:00.180Z,100871.50
2019-05-28T16:18:28.602Z,100866.59
2019-05-28T16:20:57.033Z,100881.64
2019-05-28T16:23:28.170Z,100877.24
2019-05-28T16:25:56.562Z,100882.88
2019-05-28T16:28:24.985Z,100888.52
2019-05-28T16:31:12.601Z,100890.16
2019-05-28T16:33:33.420Z,100888.51
2019-05-28T16:36:01.876Z,100895.08
2019-05-28T16:38:30.326Z,100890.38
2019-05-28T16:40:58.754Z,100895.49
2019-05-28T16:43:27.193Z,100897.97
2019-05-28T16:45:55.633Z,100884.33
2019-05-28T16:48:24.062Z,100908.79
2019-05-28T16:50:52.797Z,100911.63
2019-05-28T16:53:21.227Z,100916.84
2019-05-28T16:55:49.681Z,100921.16
2019-05-28T16:58:18.113Z,100928.04
2019-05-28T17:00:46.567Z,100929.16
2019-05-28T17:03:15.002Z,100939.52
2019-05-28T17:05:43.432Z,100938.92
2019-05-28T17:08:11.891Z,100946.09
2019-05-28T17:10:40.311Z,100947.36
2019-05-28T17:13:08.765Z,100942.71
2019-05-28T17:15:37.176Z,100957.34
2019-05-28T17:20:41.979Z,100950.11
2019-05-28T17:23:10.422Z,100950.24
2019-05-28T17:25:38.844Z,100950.84
2019-05-28T17:28:07.296Z,100963.11
2019-05-28T17:30:35.753Z,100971.79
2019-05-28T17:33:04.176Z,100962.70
2019-05-28T17:35:32.635Z,100969.82
2019-05-28T17:38:01.072Z,100959.45
2019-05-28T17:40:29.490Z,100976.70
2019-05-28T17:42:57.932Z,100980.09
2019-05-28T17:45:26.356Z,100973.08
2019-05-28T17:47:54.804Z,100978.03
2019-05-28T17:50:23.313Z,100993.82
2019-05-28T17:52:52.034Z,100995.43
2019-05-28T17:55:20.547Z,100988.12
2019-05-28T17:57:48.994Z,100999.87
2019-05-28T18:00:17.753Z,101004.27
2019-05-28T18:02:48.465Z,101003.77
2019-05-28T18:05:16.805Z,101010.14
2019-05-28T18:07:45.252Z,101013.44
2019-05-28T18:10:14.221Z,101011.58
2019-05-28T18:12:42.648Z,101017.45
2019-05-28T18:15:11.534Z,101022.19
2019-05-28T18:17:40.269Z,101026.27
2019-05-28T18:20:10.947Z,101030.54
2019-05-28T18:22:39.366Z,101035.47
2019-05-28T18:25:08.637Z,101037.57
2019-05-28T18:27:37.061Z,101037.11
2019-05-28T18:30:09.456Z,101043.90
2019-05-28T18:32:38.213Z,101044.58
2019-05-28T18:35:08.135Z,101046.44
2019-05-28T18:37:36.675Z,101048.13
2019-05-28T18:40:07.544Z,101062.26
2019-05-28T18:42:35.989Z,101067.47
2019-05-28T18:45:06.150Z,101071.55
2019-05-28T18:47:34.573Z,101081.19
2019-05-28T18:50:04.281Z,101076.34
2019-05-28T18:52:32.723Z,101083.44
2019-05-28T18:55:01.168Z,101092.81
2019-05-28T18:57:29.589Z,101091.97
2019-05-28T18:59:58.017Z,101088.41
2019-05-28T19:02:26.450Z,101092.06
2019-05-28T19:04:54.907Z,101097.73
2019-05-28T19:07:23.803Z,101095.51
2019-05-28T19:09:52.229Z,101099.49
2019-05-28T19:12:20.672Z,101116.03
2019-05-28T19:14:49.112Z,101116.03
2019-05-28T19:17:17.567Z,101127.36
2019-05-28T19:19:45.980Z,101123.45
2019-05-28T19:22:14.473Z,101134.31
2019-05-28T19:24:42.903Z,101131.71
2019-05-28T19:27:11.359Z,101133.85
2019-05-28T19:29:39.785Z,101143.02
2019-05-28T19:32:08.252Z,101150.47
2019-05-28T19:34:36.676Z,101156.09
2019-05-28T19:37:05.560Z,101164.92
2019-05-28T19:39:33.992Z,101162.84
2019-05-28T19:42:02.551Z,101168.40
2019-05-28T19:44:31.029Z,101169.72
2019-05-28T19:46:59.524Z,101176.81
2019-05-28T19:49:27.952Z,101173.38
2019-05-28T19:51:56.384Z,101175.16
2019-05-28T19:54:24.812Z,101169.01
2019-05-28T19:56:53.245Z,101176.13
2019-05-28T19:59:21.676Z,101188.47
2019-05-28T20:01:50.476Z,101191.06
2019-05-28T20:04:18.900Z,101201.02
2019-05-28T20:06:47.363Z,101209.34
2019-05-28T20:09:15.840Z,101209.45
2019-05-28T20:11:44.610Z,101209.53
2019-05-28T20:14:13.042Z,101217.96
2019-05-28T20:16:41.526Z,101215.22
2019-05-28T20:19:09.925Z,101208.74
2019-05-28T20:21:38.349Z,101217.52
2019-05-28T20:24:06.852Z,101218.36
2019-05-28T20:26:35.288Z,101227.55
2019-05-28T20:29:08.214Z,101239.66
2019-05-28T20:31:33.907Z,101234.86
2019-05-28T20:34:03.825Z,101240.17
2019-05-28T20:36:32.358Z,101241.22
2019-05-28T20:39:01.558Z,101250.50
2019-05-28T20:41:30.016Z,101250.59
2019-05-28T20:43:58.433Z,101255.86
2019-05-28T20:46:26.869Z,101249.90
2019-05-28T20:48:55.328Z,101250.45
2019-05-28T20:51:23.768Z,101253.87
2019-05-28T20:53:52.256Z,101249.79
2019-05-28T20:56:21.930Z,101252.46
2019-05-28T20:58:50.373Z,101260.80
2019-05-28T21:01:18.823Z,101270.92
2019-05-28T21:03:47.823Z,101270.84
2019-05-28T21:06:16.415Z,101268.59
2019-05-28T21:08:44.848Z,101276.39
2019-05-28T21:11:13.276Z,101281.03
2019-05-28T21:13:41.714Z,101294.08
2019-05-28T21:16:10.188Z,101291.70
2019-05-28T21:18:38.606Z,101295.62
2019-05-28T21:21:07.029Z,101299.31
2019-05-28T21:23:35.474Z,101299.44
2019-05-28T21:26:04.176Z,101303.03
2019-05-28T21:28:32.619Z,101310.10
2019-05-28T21:31:01.054Z,101318.37
2019-05-28T21:33:29.504Z,101316.26
2019-05-28T21:35:57.932Z,101321.50
2019-05-28T21:38:26.361Z,101325.90
2019-05-28T21:40:55.522Z,101321.95
2019-05-28T21:43:24.053Z,101328.04
2019-05-28T21:45:52.469Z,101334.13
2019-05-28T21:48:20.899Z,101337.34
2019-05-28T21:50:49.330Z,101341.73
2019-05-28T21:53:17.777Z,101346.11
2019-05-28T21:55:46.208Z,101342.49
2019-05-28T21:58:14.648Z,101360.73
2019-05-28T22:00:51.949Z,101359.41
2019-05-28T22:03:20.389Z,101361.60
2019-05-28T22:05:48.821Z,101366.11
2019-05-28T22:08:17.254Z,101368.21
2019-05-28T22:10:45.690Z,101369.31
2019-05-28T22:13:21.918Z,101370.77
2019-05-28T22:15:44.294Z,101372.84
2019-05-28T22:18:12.728Z,101376.11
2019-05-28T22:20:41.156Z,101372.72
2019-05-28T22:23:09.598Z,101377.49
2019-05-28T22:25:38.136Z,101380.52
2019-05-28T22:28:07.169Z,101377.50
2019-05-28T22:30:35.741Z,101380.41
2019-05-28T22:33:04.368Z,101377.88
2019-05-28T22:35:33.080Z,101380.81
2019-05-28T22:38:01.518Z,101379.24
2019-05-28T22:40:29.940Z,101378.61
2019-05-28T22:42:58.645Z,101376.67
2019-05-28T22:45:27.090Z,101377.55
2019-05-28T22:47:57.200Z,101382.28
2019-05-28T22:50:25.692Z,101376.95
2019-05-28T22:52:54.142Z,101384.83
2019-05-28T22:55:22.558Z,101392.70
2019-05-28T22:57:51.001Z,101393.34
2019-05-28T23:00:19.861Z,101395.77
2019-05-28T23:02:48.293Z,101405.57
2019-05-28T23:05:16.745Z,101401.48
2019-05-28T23:07:45.202Z,101412.25
2019-05-28T23:10:15.237Z,101416.23
2019-05-28T23:12:43.655Z,101413.83
2019-05-28T23:15:12.627Z,101416.97
2019-05-28T23:17:41.085Z,101414.92
2019-05-28T23:20:11.291Z,101411.39
2019-05-28T23:22:39.884Z,101417.33
2019-05-28T23:25:09.639Z,101425.78
2019-05-28T23:27:38.228Z,101429.53
2019-05-28T23:30:21.414Z,101428.30
2019-05-28T23:32:37.873Z,101429.48
2019-05-28T23:35:08.823Z,101436.34
2019-05-28T23:37:37.351Z,101436.20
2019-05-28T23:40:07.104Z,101439.67
2019-05-28T23:42:35.482Z,101441.67
2019-05-28T23:45:05.624Z,101443.22
2019-05-28T23:47:34.051Z,101446.53
2019-05-28T23:50:02.493Z,101455.09
2019-05-28T23:52:30.932Z,101458.52
2019-05-28T23:54:59.350Z,101461.59
2019-05-28T23:57:27.776Z,101465.41
2019-05-28T23:59:56.243Z,101461.48
